sensor_id;sensor_type;location;lat;lon;timestamp;pressure;altitude;pressure_sealevel;temperature
19568;BMP280;9930;49.240;8.548;2024-03-07T00:00:10;101125.31;;;10.20
19568;BMP280;9930;49.240;8.548;2024-03-07T00:02:51;101125.53;;;10.25
19568;BMP280;9930;49.240;8.548;2024-03-07T00:05:21;101136.53;;;10.24
19568;BMP280;9930;49.240;8.548;2024-03-07T00:07:50;101142.34;;;10.21
19568;BMP280;9930;49.240;8.548;2024-03-07T00:10:15;101142.44;;;10.23
19568;BMP280;9930;49.240;8.548;2024-03-07T00:12:43;101117.78;;;10.07
19568;BMP280;9930;49.240;8.548;2024-03-07T00:15:12;101147.38;;;10.20
19568;BMP280;9930;49.240;8.548;2024-03-07T00:17:39;101131.66;;;10.12
19568;BMP280;9930;49.240;8.548;2024-03-07T00:20:09;101151.47;;;10.18
19568;BMP280;9930;49.240;8.548;2024-03-07T00:22:36;101130.69;;;10.10
19568;BMP280;9930;49.240;8.548;2024-03-07T00:25:03;101121.88;;;10.03
19568;BMP280;9930;49.240;8.548;2024-03-07T00:27:33;101134.13;;;10.11
19568;BMP280;9930;49.240;8.548;2024-03-07T00:29:59;101138.19;;;10.07
19568;BMP280;9930;49.240;8.548;2024-03-07T00:32:25;101131.41;;;10.07
19568;BMP280;9930;49.240;8.548;2024-03-07T00:34:53;101144.41;;;10.12
19568;BMP280;9930;49.240;8.548;2024-03-07T00:37:19;101127.03;;;10.05
19568;BMP280;9930;49.240;8.548;2024-03-07T00:39:47;101144.47;;;10.14
19568;BMP280;9930;49.240;8.548;2024-03-07T00:42:12;101142.72;;;10.13
19568;BMP280;9930;49.240;8.548;2024-03-07T00:44:38;101143.59;;;10.13
19568;BMP280;9930;49.240;8.548;2024-03-07T00:47:04;101129.59;;;10.05
19568;BMP280;9930;49.240;8.548;2024-03-07T00:49:30;101123.22;;;9.97
19568;BMP280;9930;49.240;8.548;2024-03-07T00:51:58;101127.69;;;10.01
19568;BMP280;9930;49.240;8.548;2024-03-07T00:54:23;101131.91;;;10.00
19568;BMP280;9930;49.240;8.548;2024-03-07T00:56:49;101142.41;;;10.06
19568;BMP280;9930;49.240;8.548;2024-03-07T00:59:19;101144.97;;;10.06
19568;BMP280;9930;49.240;8.548;2024-03-07T01:01:44;101136.38;;;10.04
19568;BMP280;9930;49.240;8.548;2024-03-07T01:04:11;101128.31;;;9.97
19568;BMP280;9930;49.240;8.548;2024-03-07T01:06:37;101136.28;;;10.03
19568;BMP280;9930;49.240;8.548;2024-03-07T01:09:04;101119.66;;;9.93
19568;BMP280;9930;49.240;8.548;2024-03-07T01:11:30;101135.97;;;9.97
19568;BMP280;9930;49.240;8.548;2024-03-07T01:13:55;101126.19;;;9.88
19568;BMP280;9930;49.240;8.548;2024-03-07T01:16:22;101137.41;;;9.92
19568;BMP280;9930;49.240;8.548;2024-03-07T01:18:48;101121.63;;;9.83
19568;BMP280;9930;49.240;8.548;2024-03-07T01:21:15;101130.25;;;9.85
19568;BMP280;9930;49.240;8.548;2024-03-07T01:23:41;101116.47;;;9.81
19568;BMP280;9930;49.240;8.548;2024-03-07T01:26:06;101126.09;;;9.87
19568;BMP280;9930;49.240;8.548;2024-03-07T01:28:34;101130.25;;;9.85
19568;BMP280;9930;49.240;8.548;2024-03-07T01:31:00;101122.50;;;9.83
19568;BMP280;9930;49.240;8.548;2024-03-07T01:33:26;101129.91;;;9.79
19568;BMP280;9930;49.240;8.548;2024-03-07T01:35:52;101123.56;;;9.70
19568;BMP280;9930;49.240;8.548;2024-03-07T01:38:18;101124.59;;;9.74
19568;BMP280;9930;49.240;8.548;2024-03-07T01:40:44;101114.88;;;9.67
19568;BMP280;9930;49.240;8.548;2024-03-07T01:43:11;101114.88;;;9.67
19568;BMP280;9930;49.240;8.548;2024-03-07T01:45:39;101121.09;;;9.72
19568;BMP280;9930;49.240;8.548;2024-03-07T01:48:08;101113.13;;;9.66
19568;BMP280;9930;49.240;8.548;2024-03-07T01:50:35;101116.38;;;9.63
19568;BMP280;9930;49.240;8.548;2024-03-07T01:53:06;101122.75;;;9.71
19568;BMP280;9930;49.240;8.548;2024-03-07T01:55:34;101116.63;;;9.68
19568;BMP280;9930;49.240;8.548;2024-03-07T01:58:02;101112.16;;;9.64
19568;BMP280;9930;49.240;8.548;2024-03-07T02:00:30;101114.16;;;9.69
19568;BMP280;9930;49.240;8.548;2024-03-07T02:02:56;101100.16;;;9.61
19568;BMP280;9930;49.240;8.548;2024-03-07T02:05:22;101109.78;;;9.67
19568;BMP280;9930;49.240;8.548;2024-03-07T02:07:47;101099.97;;;9.58
19568;BMP280;9930;49.240;8.548;2024-03-07T02:10:13;101111.38;;;9.65
19568;BMP280;9930;49.240;8.548;2024-03-07T02:12:39;101095.53;;;9.54
19568;BMP280;9930;49.240;8.548;2024-03-07T02:15:05;101103.31;;;9.57
19568;BMP280;9930;49.240;8.548;2024-03-07T02:17:31;101098.00;;;9.53
19568;BMP280;9930;49.240;8.548;2024-03-07T02:19:58;101102.28;;;9.54
19568;BMP280;9930;49.240;8.548;2024-03-07T02:22:24;101101.34;;;9.52
19568;BMP280;9930;49.240;8.548;2024-03-07T02:24:52;101102.84;;;9.48
19568;BMP280;9930;49.240;8.548;2024-03-07T02:27:17;101088.84;;;9.40
19568;BMP280;9930;49.240;8.548;2024-03-07T02:29:43;101102.59;;;9.44
19568;BMP280;9930;49.240;8.548;2024-03-07T02:32:09;101082.53;;;9.33
19568;BMP280;9930;49.240;8.548;2024-03-07T02:34:35;101096.38;;;9.38
19568;BMP280;9930;49.240;8.548;2024-03-07T02:37:02;101066.63;;;9.21
19568;BMP280;9930;49.240;8.548;2024-03-07T02:39:28;101095.97;;;9.31
19568;BMP280;9930;49.240;8.548;2024-03-07T02:41:54;101081.97;;;9.23
19568;BMP280;9930;49.240;8.548;2024-03-07T02:44:20;101093.97;;;9.25
19568;BMP280;9930;49.240;8.548;2024-03-07T02:46:46;101076.56;;;9.17
19568;BMP280;9930;49.240;8.548;2024-03-07T02:49:14;101075.59;;;9.15
19568;BMP280;9930;49.240;8.548;2024-03-07T02:51:40;101078.22;;;9.16
19568;BMP280;9930;49.240;8.548;2024-03-07T02:54:08;101068.41;;;9.07
19568;BMP280;9930;49.240;8.548;2024-03-07T02:56:34;101063.09;;;9.03
19568;BMP280;9930;49.240;8.548;2024-03-07T02:59:00;101082.03;;;9.08
19568;BMP280;9930;49.240;8.548;2024-03-07T03:01:26;101066.09;;;8.96
19568;BMP280;9930;49.240;8.548;2024-03-07T03:03:52;101073.97;;;9.00
19568;BMP280;9930;49.240;8.548;2024-03-07T03:06:18;101076.19;;;8.94
19568;BMP280;9930;49.240;8.548;2024-03-07T03:08:46;101065.59;;;8.87
19568;BMP280;9930;49.240;8.548;2024-03-07T03:11:12;101071.28;;;8.83
19568;BMP280;9930;49.240;8.548;2024-03-07T03:13:42;101079.97;;;8.86
19568;BMP280;9930;49.240;8.548;2024-03-07T03:16:09;101082.34;;;8.83
19568;BMP280;9930;49.240;8.548;2024-03-07T03:18:35;101078.59;;;8.76
19568;BMP280;9930;49.240;8.548;2024-03-07T03:21:02;101079.31;;;8.74
19568;BMP280;9930;49.240;8.548;2024-03-07T03:23:29;101076.41;;;8.68
19568;BMP280;9930;49.240;8.548;2024-03-07T03:25:55;101070.38;;;8.66
19568;BMP280;9930;49.240;8.548;2024-03-07T03:28:21;101075.44;;;8.66
19568;BMP280;9930;49.240;8.548;2024-03-07T03:30:49;101069.06;;;8.58
19568;BMP280;9930;49.240;8.548;2024-03-07T03:33:15;101068.88;;;8.55
19568;BMP280;9930;49.240;8.548;2024-03-07T03:35:41;101061.81;;;8.49
19568;BMP280;9930;49.240;8.548;2024-03-07T03:38:08;101065.13;;;8.48
19568;BMP280;9930;49.240;8.548;2024-03-07T03:40:34;101075.47;;;8.51
19568;BMP280;9930;49.240;8.548;2024-03-07T03:43:01;101057.06;;;8.40
19568;BMP280;9930;49.240;8.548;2024-03-07T03:45:27;101067.50;;;8.45
19568;BMP280;9930;49.240;8.548;2024-03-07T03:47:53;101058.56;;;8.37
19568;BMP280;9930;49.240;8.548;2024-03-07T03:50:19;101066.44;;;8.41
19568;BMP280;9930;49.240;8.548;2024-03-07T03:52:45;101076.53;;;8.40
19568;BMP280;9930;49.240;8.548;2024-03-07T03:55:11;101059.94;;;8.32
19568;BMP280;9930;49.240;8.548;2024-03-07T03:57:40;101071.97;;;8.34
19568;BMP280;9930;49.240;8.548;2024-03-07T04:00:08;101064.75;;;8.27
19568;BMP280;9930;49.240;8.548;2024-03-07T04:02:41;101063.00;;;8.26
19568;BMP280;9930;49.240;8.548;2024-03-07T04:05:09;101064.50;;;8.23
19568;BMP280;9930;49.240;8.548;2024-03-07T04:07:35;101068.00;;;8.25
19568;BMP280;9930;49.240;8.548;2024-03-07T04:10:01;101067.81;;;8.22
19568;BMP280;9930;49.240;8.548;2024-03-07T04:12:34;101063.63;;;8.22
19568;BMP280;9930;49.240;8.548;2024-03-07T04:15:00;101075.44;;;8.22
19568;BMP280;9930;49.240;8.548;2024-03-07T04:17:26;101057.13;;;8.12
19568;BMP280;9930;49.240;8.548;2024-03-07T04:19:52;101050.72;;;8.04
19568;BMP280;9930;49.240;8.548;2024-03-07T04:22:18;101070.00;;;8.16
19568;BMP280;9930;49.240;8.548;2024-03-07T04:24:45;101063.09;;;8.13
19568;BMP280;9930;49.240;8.548;2024-03-07T04:27:11;101063.78;;;8.10
19568;BMP280;9930;49.240;8.548;2024-03-07T04:29:37;101067.03;;;8.08
19568;BMP280;9930;49.240;8.548;2024-03-07T04:32:04;101060.63;;;8.00
19568;BMP280;9930;49.240;8.548;2024-03-07T04:34:31;101048.09;;;7.88
19568;BMP280;9930;49.240;8.548;2024-03-07T04:36:57;101070.63;;;7.97
19568;BMP280;9930;49.240;8.548;2024-03-07T04:39:27;101054.13;;;7.90
19568;BMP280;9930;49.240;8.548;2024-03-07T04:42:03;101052.56;;;7.92
19568;BMP280;9930;49.240;8.548;2024-03-07T04:44:30;101054.84;;;7.88
19568;BMP280;9930;49.240;8.548;2024-03-07T04:46:59;101062.72;;;7.92
19568;BMP280;9930;49.240;8.548;2024-03-07T04:49:28;101052.19;;;7.86
19568;BMP280;9930;49.240;8.548;2024-03-07T04:51:59;101058.94;;;7.86
19568;BMP280;9930;49.240;8.548;2024-03-07T04:54:26;101058.84;;;7.84
19568;BMP280;9930;49.240;8.548;2024-03-07T04:56:53;101072.88;;;7.92
19568;BMP280;9930;49.240;8.548;2024-03-07T04:59:20;101066.06;;;7.91
19568;BMP280;9930;49.240;8.548;2024-03-07T05:01:48;101065.09;;;7.89
19568;BMP280;9930;49.240;8.548;2024-03-07T05:04:16;101070.16;;;7.89
19568;BMP280;9930;49.240;8.548;2024-03-07T05:06:42;101069.19;;;7.87
19568;BMP280;9930;49.240;8.548;2024-03-07T05:09:10;101055.16;;;7.79
19568;BMP280;9930;49.240;8.548;2024-03-07T05:11:49;101067.25;;;7.83
19568;BMP280;9930;49.240;8.548;2024-03-07T05:14:17;101062.00;;;7.80
19568;BMP280;9930;49.240;8.548;2024-03-07T05:16:43;101051.31;;;7.71
19568;BMP280;9930;49.240;8.548;2024-03-07T05:19:09;101067.69;;;7.76
19568;BMP280;9930;49.240;8.548;2024-03-07T05:21:35;101063.22;;;7.72
19568;BMP280;9930;49.240;8.548;2024-03-07T05:24:07;101050.66;;;7.60
19568;BMP280;9930;49.240;8.548;2024-03-07T05:26:37;101055.84;;;7.62
19568;BMP280;9930;49.240;8.548;2024-03-07T05:29:05;101064.34;;;7.62
19568;BMP280;9930;49.240;8.548;2024-03-07T05:31:34;101053.72;;;7.55
19568;BMP280;9930;49.240;8.548;2024-03-07T05:34:02;101060.63;;;7.57
19568;BMP280;9930;49.240;8.548;2024-03-07T05:36:37;101073.16;;;7.54
19568;BMP280;9930;49.240;8.548;2024-03-07T05:39:13;101053.06;;;7.44
19568;BMP280;9930;49.240;8.548;2024-03-07T05:41:40;101066.84;;;7.47
19568;BMP280;9930;49.240;8.548;2024-03-07T05:44:07;101069.19;;;7.44
19568;BMP280;9930;49.240;8.548;2024-03-07T05:46:37;101071.63;;;7.43
19568;BMP280;9930;49.240;8.548;2024-03-07T05:49:09;101062.59;;;7.33
19568;BMP280;9930;49.240;8.548;2024-03-07T05:51:35;101056.44;;;7.30
19568;BMP280;9930;49.240;8.548;2024-03-07T05:54:02;101046.50;;;7.20
19568;BMP280;9930;49.240;8.548;2024-03-07T05:56:33;101056.16;;;7.25
19568;BMP280;9930;49.240;8.548;2024-03-07T05:59:04;101049.06;;;7.20
19568;BMP280;9930;49.240;8.548;2024-03-07T06:01:34;101071.47;;;7.27
19568;BMP280;9930;49.240;8.548;2024-03-07T06:04:05;101073.03;;;7.25
19568;BMP280;9930;49.240;8.548;2024-03-07T06:06:32;101055.50;;;7.14
19568;BMP280;9930;49.240;8.548;2024-03-07T06:09:08;101036.91;;;7.01
19568;BMP280;9930;49.240;8.548;2024-03-07T06:11:35;101051.13;;;7.12
19568;BMP280;9930;49.240;8.548;2024-03-07T06:14:02;101066.72;;;7.18
19568;BMP280;9930;49.240;8.548;2024-03-07T06:16:36;101037.69;;;7.00
19568;BMP280;9930;49.240;8.548;2024-03-07T06:19:05;101060.28;;;7.10
19568;BMP280;9930;49.240;8.548;2024-03-07T06:21:37;101069.06;;;7.15
19568;BMP280;9930;49.240;8.548;2024-03-07T06:24:05;101057.75;;;7.10
19568;BMP280;9930;49.240;8.548;2024-03-07T06:26:34;101062.34;;;7.15
19568;BMP280;9930;49.240;8.548;2024-03-07T06:29:12;101064.97;;;7.17
19568;BMP280;9930;49.240;8.548;2024-03-07T06:31:38;101070.03;;;7.17
19568;BMP280;9930;49.240;8.548;2024-03-07T06:34:04;101058.03;;;7.14
19568;BMP280;9930;49.240;8.548;2024-03-07T06:36:30;101068.38;;;7.18
19568;BMP280;9930;49.240;8.548;2024-03-07T06:38:56;101058.81;;;7.13
19568;BMP280;9930;49.240;8.548;2024-03-07T06:41:21;101054.34;;;7.09
19568;BMP280;9930;49.240;8.548;2024-03-07T06:43:48;101062.44;;;7.17
19568;BMP280;9930;49.240;8.548;2024-03-07T06:46:15;101069.25;;;7.18
19568;BMP280;9930;49.240;8.548;2024-03-07T06:48:44;101068.47;;;7.19
19568;BMP280;9930;49.240;8.548;2024-03-07T06:51:10;101069.63;;;7.24
19568;BMP280;9930;49.240;8.548;2024-03-07T06:53:36;101047.50;;;7.22
19568;BMP280;9930;49.240;8.548;2024-03-07T06:56:04;101064.25;;;7.33
19568;BMP280;9930;49.240;8.548;2024-03-07T06:58:32;101067.75;;;7.35
19568;BMP280;9930;49.240;8.548;2024-03-07T07:00:59;101067.06;;;7.37
19568;BMP280;9930;49.240;8.548;2024-03-07T07:03:26;101057.50;;;7.33
19568;BMP280;9930;49.240;8.548;2024-03-07T07:05:56;101063.03;;;7.41
19568;BMP280;9930;49.240;8.548;2024-03-07T07:08:21;101049.00;;;7.33
19568;BMP280;9930;49.240;8.548;2024-03-07T07:10:47;101065.06;;;7.46
19568;BMP280;9930;49.240;8.548;2024-03-07T07:13:13;101064.47;;;7.51
19568;BMP280;9930;49.240;8.548;2024-03-07T07:15:39;101067.28;;;7.55
19568;BMP280;9930;49.240;8.548;2024-03-07T07:18:05;101062.56;;;7.61
19568;BMP280;9930;49.240;8.548;2024-03-07T07:20:34;101051.81;;;7.65
19568;BMP280;9930;49.240;8.548;2024-03-07T07:23:00;101044.47;;;7.70
19568;BMP280;9930;49.240;8.548;2024-03-07T07:25:28;101059.91;;;7.88
19568;BMP280;9930;49.240;8.548;2024-03-07T07:27:53;101053.53;;;7.94
19568;BMP280;9930;49.240;8.548;2024-03-07T07:30:22;101043.91;;;8.03
19568;BMP280;9930;49.240;8.548;2024-03-07T07:32:53;101050.56;;;8.16
19568;BMP280;9930;49.240;8.548;2024-03-07T07:35:19;101054.59;;;8.27
19568;BMP280;9930;49.240;8.548;2024-03-07T07:37:48;101049.53;;;8.42
19568;BMP280;9930;49.240;8.548;2024-03-07T07:40:17;101051.00;;;8.53
19568;BMP280;9930;49.240;8.548;2024-03-07T07:42:49;101051.69;;;8.65
19568;BMP280;9930;49.240;8.548;2024-03-07T07:45:16;101053.94;;;8.75
19568;BMP280;9930;49.240;8.548;2024-03-07T07:50:13;101044.59;;;8.91
19568;BMP280;9930;49.240;8.548;2024-03-07T07:52:44;101043.19;;;8.96
19568;BMP280;9930;49.240;8.548;2024-03-07T07:55:11;101039.16;;;8.99
19568;BMP280;9930;49.240;8.548;2024-03-07T07:57:44;101000.78;;;8.80
19568;BMP280;9930;49.240;8.548;2024-03-07T08:00:21;101038.44;;;9.02
19568;BMP280;9930;49.240;8.548;2024-03-07T08:02:56;101040.44;;;9.07
19568;BMP280;9930;49.240;8.548;2024-03-07T08:05:24;101045.75;;;9.12
19568;BMP280;9930;49.240;8.548;2024-03-07T08:07:55;101032.97;;;9.11
19568;BMP280;9930;49.240;8.548;2024-03-07T08:10:27;101023.66;;;9.11
19568;BMP280;9930;49.240;8.548;2024-03-07T08:12:57;101042.59;;;9.32
19568;BMP280;9930;49.240;8.548;2024-03-07T08:15:26;101029.06;;;9.33
19568;BMP280;9930;49.240;8.548;2024-03-07T08:17:54;101023.50;;;9.40
19568;BMP280;9930;49.240;8.548;2024-03-07T08:20:22;101040.38;;;9.55
19568;BMP280;9930;49.240;8.548;2024-03-07T08:22:50;101024.22;;;9.54
19568;BMP280;9930;49.240;8.548;2024-03-07T08:25:24;101030.09;;;9.69
19568;BMP280;9930;49.240;8.548;2024-03-07T08:27:52;101041.47;;;9.76
19568;BMP280;9930;49.240;8.548;2024-03-07T08:30:19;101015.84;;;9.73
19568;BMP280;9930;49.240;8.548;2024-03-07T08:32:50;101029.75;;;9.80
19568;BMP280;9930;49.240;8.548;2024-03-07T08:35:17;101026.97;;;9.91
19568;BMP280;9930;49.240;8.548;2024-03-07T08:37:48;101014.22;;;9.91
19568;BMP280;9930;49.240;8.548;2024-03-07T08:40:19;101011.03;;;9.95
19568;BMP280;9930;49.240;8.548;2024-03-07T08:42:50;101011.47;;;10.04
19568;BMP280;9930;49.240;8.548;2024-03-07T08:45:26;101019.56;;;10.14
19568;BMP280;9930;49.240;8.548;2024-03-07T08:47:55;101013.22;;;10.22
19568;BMP280;9930;49.240;8.548;2024-03-07T08:50:21;101019.56;;;10.30
19568;BMP280;9930;49.240;8.548;2024-03-07T08:52:49;101014.81;;;10.37
19568;BMP280;9930;49.240;8.548;2024-03-07T08:55:16;101016.03;;;10.46
19568;BMP280;9930;49.240;8.548;2024-03-07T08:57:43;101007.72;;;10.50
19568;BMP280;9930;49.240;8.548;2024-03-07T09:00:12;101010.03;;;10.63
19568;BMP280;9930;49.240;8.548;2024-03-07T09:02:49;100996.47;;;10.64
19568;BMP280;9930;49.240;8.548;2024-03-07T09:05:21;100998.66;;;10.74
19568;BMP280;9930;49.240;8.548;2024-03-07T09:07:48;100993.16;;;10.84
19568;BMP280;9930;49.240;8.548;2024-03-07T09:10:15;100999.28;;;10.88
19568;BMP280;9930;49.240;8.548;2024-03-07T09:12:41;100999.72;;;10.97
19568;BMP280;9930;49.240;8.548;2024-03-07T09:15:08;100991.38;;;11.01
19568;BMP280;9930;49.240;8.548;2024-03-07T09:17:36;100986.69;;;11.10
19568;BMP280;9930;49.240;8.548;2024-03-07T09:20:06;100994.28;;;11.28
19568;BMP280;9930;49.240;8.548;2024-03-07T09:22:34;100998.19;;;11.39
19568;BMP280;9930;49.240;8.548;2024-03-07T09:25:01;100978.69;;;11.41
19568;BMP280;9930;49.240;8.548;2024-03-07T09:27:29;100978.63;;;11.40
19568;BMP280;9930;49.240;8.548;2024-03-07T09:29:54;100986.69;;;11.49
19568;BMP280;9930;49.240;8.548;2024-03-07T09:32:20;100962.50;;;11.41
19568;BMP280;9930;49.240;8.548;2024-03-07T09:34:47;100974.97;;;11.54
19568;BMP280;9930;49.240;8.548;2024-03-07T09:37:13;100982.16;;;11.62
19568;BMP280;9930;49.240;8.548;2024-03-07T09:39:41;100978.66;;;11.60
19568;BMP280;9930;49.240;8.548;2024-03-07T09:42:09;100962.88;;;11.50
19568;BMP280;9930;49.240;8.548;2024-03-07T09:44:43;100979.75;;;11.46
19568;BMP280;9930;49.240;8.548;2024-03-07T09:47:11;100964.66;;;11.31
19568;BMP280;9930;49.240;8.548;2024-03-07T09:49:38;100978.22;;;11.30
19568;BMP280;9930;49.240;8.548;2024-03-07T09:52:07;100965.94;;;11.22
19568;BMP280;9930;49.240;8.548;2024-03-07T09:54:40;100968.28;;;11.17
19568;BMP280;9930;49.240;8.548;2024-03-07T09:57:11;100976.13;;;11.22
19568;BMP280;9930;49.240;8.548;2024-03-07T09:59:38;100957.25;;;11.18
19568;BMP280;9930;49.240;8.548;2024-03-07T10:02:08;100983.19;;;11.27
19568;BMP280;9930;49.240;8.548;2024-03-07T10:04:44;100966.13;;;11.26
19568;BMP280;9930;49.240;8.548;2024-03-07T10:07:15;100979.22;;;11.34
19568;BMP280;9930;49.240;8.548;2024-03-07T10:09:42;100963.91;;;11.34
19568;BMP280;9930;49.240;8.548;2024-03-07T10:12:09;100960.94;;;11.44
19568;BMP280;9930;49.240;8.548;2024-03-07T10:14:56;100956.22;;;11.53
19568;BMP280;9930;49.240;8.548;2024-03-07T10:17:26;100968.78;;;11.68
19568;BMP280;9930;49.240;8.548;2024-03-07T10:19:51;100957.88;;;11.72
19568;BMP280;9930;49.240;8.548;2024-03-07T10:22:19;100970.56;;;11.90
19568;BMP280;9930;49.240;8.548;2024-03-07T10:24:56;100952.03;;;11.95
19568;BMP280;9930;49.240;8.548;2024-03-07T10:27:27;100961.84;;;12.06
19568;BMP280;9930;49.240;8.548;2024-03-07T10:29:54;100951.16;;;12.16
19568;BMP280;9930;49.240;8.548;2024-03-07T10:32:21;100955.81;;;12.26
19568;BMP280;9930;49.240;8.548;2024-03-07T10:34:52;100960.66;;;12.41
19568;BMP280;9930;49.240;8.548;2024-03-07T10:37:18;100949.09;;;12.50
19568;BMP280;9930;49.240;8.548;2024-03-07T10:39:49;100949.28;;;12.55
19568;BMP280;9930;49.240;8.548;2024-03-07T10:42:17;100936.72;;;12.61
19568;BMP280;9930;49.240;8.548;2024-03-07T10:44:46;100947.28;;;12.70
19568;BMP280;9930;49.240;8.548;2024-03-07T10:47:18;100935.38;;;12.71
19568;BMP280;9930;49.240;8.548;2024-03-07T10:50:21;100942.19;;;12.70
19568;BMP280;9930;49.240;8.548;2024-03-07T10:52:58;100938.56;;;12.65
19568;BMP280;9930;49.240;8.548;2024-03-07T10:55:34;100920.25;;;12.54
19568;BMP280;9930;49.240;8.548;2024-03-07T10:58:37;100920.19;;;12.53
19568;BMP280;9930;49.240;8.548;2024-03-07T11:01:06;100912.34;;;12.48
19568;BMP280;9930;49.240;8.548;2024-03-07T11:03:37;100904.69;;;12.48
19568;BMP280;9930;49.240;8.548;2024-03-07T11:06:03;100916.41;;;12.65
19568;BMP280;9930;49.240;8.548;2024-03-07T11:08:34;100877.53;;;12.52
19568;BMP280;9930;49.240;8.548;2024-03-07T11:11:00;100914.13;;;12.73
19568;BMP280;9930;49.240;8.548;2024-03-07T11:13:27;100907.97;;;12.68
19568;BMP280;9930;49.240;8.548;2024-03-07T11:15:55;100890.00;;;12.67
19568;BMP280;9930;49.240;8.548;2024-03-07T11:18:23;100904.88;;;12.77
19568;BMP280;9930;49.240;8.548;2024-03-07T11:20:52;100886.03;;;12.75
19568;BMP280;9930;49.240;8.548;2024-03-07T11:23:32;100887.06;;;12.80
19568;BMP280;9930;49.240;8.548;2024-03-07T11:26:09;100886.69;;;12.93
19568;BMP280;9930;49.240;8.548;2024-03-07T11:28:39;100876.50;;;12.94
19568;BMP280;9930;49.240;8.548;2024-03-07T11:31:25;100882.63;;;12.98
19568;BMP280;9930;49.240;8.548;2024-03-07T11:34:16;100864.91;;;13.04
19568;BMP280;9930;49.240;8.548;2024-03-07T11:36:45;100874.00;;;13.20
19568;BMP280;9930;49.240;8.548;2024-03-07T11:39:46;100863.88;;;13.23
19568;BMP280;9930;49.240;8.548;2024-03-07T11:42:29;100865.16;;;13.36
19568;BMP280;9930;49.240;8.548;2024-03-07T11:44:57;100863.78;;;13.45
19568;BMP280;9930;49.240;8.548;2024-03-07T11:47:25;100851.38;;;13.57
19568;BMP280;9930;49.240;8.548;2024-03-07T11:49:55;100855.38;;;13.76
19568;BMP280;9930;49.240;8.548;2024-03-07T11:52:24;100840.88;;;13.77
19568;BMP280;9930;49.240;8.548;2024-03-07T11:54:49;100844.34;;;13.79
19568;BMP280;9930;49.240;8.548;2024-03-07T11:57:18;100839.09;;;13.74
19568;BMP280;9930;49.240;8.548;2024-03-07T11:59:52;100846.88;;;13.77
19568;BMP280;9930;49.240;8.548;2024-03-07T12:02:19;100842.28;;;13.67
19568;BMP280;9930;49.240;8.548;2024-03-07T12:04:48;100834.44;;;13.63
19568;BMP280;9930;49.240;8.548;2024-03-07T12:07:15;100819.72;;;13.57
19568;BMP280;9930;49.240;8.548;2024-03-07T12:09:44;100832.84;;;13.66
19568;BMP280;9930;49.240;8.548;2024-03-07T12:12:17;100831.16;;;13.67
19568;BMP280;9930;49.240;8.548;2024-03-07T12:14:43;100822.72;;;13.71
19568;BMP280;9930;49.240;8.548;2024-03-07T12:17:09;100817.56;;;13.69
19568;BMP280;9930;49.240;8.548;2024-03-07T12:19:35;100809.25;;;13.76
19568;BMP280;9930;49.240;8.548;2024-03-07T12:22:08;100805.75;;;13.74
19568;BMP280;9930;49.240;8.548;2024-03-07T12:24:39;100800.69;;;13.76
19568;BMP280;9930;49.240;8.548;2024-03-07T12:27:12;100810.44;;;13.87
19568;BMP280;9930;49.240;8.548;2024-03-07T12:29:40;100806.22;;;13.89
19568;BMP280;9930;49.240;8.548;2024-03-07T12:32:09;100796.75;;;13.87
19568;BMP280;9930;49.240;8.548;2024-03-07T12:34:37;100796.69;;;13.85
19568;BMP280;9930;49.240;8.548;2024-03-07T12:37:07;100804.66;;;13.94
19568;BMP280;9930;49.240;8.548;2024-03-07T12:39:35;100796.97;;;13.94
19568;BMP280;9930;49.240;8.548;2024-03-07T12:42:05;100790.16;;;13.95
19568;BMP280;9930;49.240;8.548;2024-03-07T12:44:41;100789.50;;;14.02
19568;BMP280;9930;49.240;8.548;2024-03-07T12:47:17;100793.31;;;14.15
19568;BMP280;9930;49.240;8.548;2024-03-07T12:49:44;100775.44;;;14.18
19568;BMP280;9930;49.240;8.548;2024-03-07T12:52:11;100789.31;;;14.24
19568;BMP280;9930;49.240;8.548;2024-03-07T12:54:41;100767.84;;;14.21
19568;BMP280;9930;49.240;8.548;2024-03-07T12:57:08;100779.22;;;14.31
19568;BMP280;9930;49.240;8.548;2024-03-07T12:59:35;100781.91;;;14.35
19568;BMP280;9930;49.240;8.548;2024-03-07T13:02:11;100781.69;;;14.27
19568;BMP280;9930;49.240;8.548;2024-03-07T13:04:38;100779.91;;;14.25
19568;BMP280;9930;49.240;8.548;2024-03-07T13:07:06;100781.00;;;14.33
19568;BMP280;9930;49.240;8.548;2024-03-07T13:09:35;100768.03;;;14.29
19568;BMP280;9930;49.240;8.548;2024-03-07T13:12:01;100778.47;;;14.35
19568;BMP280;9930;49.240;8.548;2024-03-07T13:14:30;100781.28;;;14.42
19568;BMP280;9930;49.240;8.548;2024-03-07T13:17:00;100772.59;;;14.39
19568;BMP280;9930;49.240;8.548;2024-03-07T13:19:28;100769.22;;;14.40
19568;BMP280;9930;49.240;8.548;2024-03-07T13:21:56;100769.34;;;14.43
19568;BMP280;9930;49.240;8.548;2024-03-07T13:24:23;100775.56;;;14.51
19568;BMP280;9930;49.240;8.548;2024-03-07T13:26:49;100778.94;;;14.50
19568;BMP280;9930;49.240;8.548;2024-03-07T13:29:16;100779.16;;;14.57
19568;BMP280;9930;49.240;8.548;2024-03-07T13:31:44;100766.19;;;14.53
19568;BMP280;9930;49.240;8.548;2024-03-07T13:34:11;100773.16;;;14.57
19568;BMP280;9930;49.240;8.548;2024-03-07T13:36:44;100772.28;;;14.56
19568;BMP280;9930;49.240;8.548;2024-03-07T13:39:12;100762.78;;;14.54
19568;BMP280;9930;49.240;8.548;2024-03-07T13:41:43;100775.72;;;14.57
19568;BMP280;9930;49.240;8.548;2024-03-07T13:44:14;100774.84;;;14.56
19568;BMP280;9930;49.240;8.548;2024-03-07T13:46:40;100774.84;;;14.56
19568;BMP280;9930;49.240;8.548;2024-03-07T13:49:06;100759.38;;;14.53
19568;BMP280;9930;49.240;8.548;2024-03-07T13:51:40;100760.97;;;14.50
19568;BMP280;9930;49.240;8.548;2024-03-07T13:54:17;100754.81;;;14.43
19568;BMP280;9930;49.240;8.548;2024-03-07T13:57:36;100758.13;;;14.41
19568;BMP280;9930;49.240;8.548;2024-03-07T14:03:45;100758.75;;;14.32
19568;BMP280;9930;49.240;8.548;2024-03-07T14:06:32;100743.03;;;14.21
19568;BMP280;9930;49.240;8.548;2024-03-07T14:27:33;100744.53;;;14.43
19568;BMP280;9930;49.240;8.548;2024-03-07T14:30:27;100734.81;;;14.33
19568;BMP280;9930;49.240;8.548;2024-03-07T14:33:05;100742.66;;;14.38
19568;BMP280;9930;49.240;8.548;2024-03-07T14:38:56;100731.34;;;14.31
19568;BMP280;9930;49.240;8.548;2024-03-07T14:44:19;100727.88;;;14.29
19568;BMP280;9930;49.240;8.548;2024-03-07T14:47:00;100719.91;;;14.20
19568;BMP280;9930;49.240;8.548;2024-03-07T14:49:31;100720.75;;;14.19
19568;BMP280;9930;49.240;8.548;2024-03-07T14:51:58;100723.34;;;14.20
19568;BMP280;9930;49.240;8.548;2024-03-07T14:54:25;100722.56;;;14.23
19568;BMP280;9930;49.240;8.548;2024-03-07T14:56:52;100708.75;;;14.18